Terminal Aerodrome Forecast
Issued by NWS

Home | Current Version | Previous Version | Text Only | Print | Product List | Glossary On
Versions: 1 2 3 4 5 6 7 8 9 10 11 12 13 14 15 16 17 18
154
FTUS42 KGSP 012104 AAA
TAFAND
TAF AMD
KAND 012104Z 0121/0218 22008KT P6SM SCT035
      TEMPO 0122/0124 4SM -TSRA OVC025CB
     FM020300 21003KT P6SM BKN100
     FM020900 21005KT 6SM BR FEW007 SCT013
     FM021600 22007KT P6SM BKN045=

USA.gov is the U.S. government's official web portal to all federal, state and local government web resources and services.